x

West Bermuda - 240 Nm West Of Bermuda (41048) Wave Buoy

4:50am - Sun 5th Jul 2015 All times are UTC.

  • Sig Wave height 4.3ft
  • Swell Direction
  • Peak Period 9s
  • Average Period 6s
  • Wind
    13mph, 16mph gusts
  • Sea Temp 81°f
  • Air Temp 81°f
  • Sea Pressure 1022.9mb

More Historic Weather Station data

Upgrade to MSW Pro to gain access to the past 30 days of data for over 8000 Wavebouys and Weather Stations around the globe.

Join Pro

Comparision Forecast

View Surf forecast
   
Sun 07/05 4:50am 4.5ft 9s 6s 13 16 mph 1022.9mb 81f 81f
3:50am 4ft 9s 5s 11 13 mph 1022.9mb 81f 81f
2:50am 4ft 8s 6s 9 11 mph 1023mb 81f 81f
1:50am 4ft 7s 5s 11 13 mph 1022.8mb 81f 81f
12:50am 4ft 8s 5s 11 13 mph 1022.6mb 81f 81f
Sat 07/04 11:50pm 4ft 8s 6s 11 13 mph 1022.7mb 81f 81f
10:50pm 4.5ft 8s 5s 11 13 mph 1022.4mb 82f 82f
9:50pm 4ft 8s 5s 9 11 mph 1022.4mb 82f 82f
8:50pm 4.5ft 7s  -  13 16 mph 1022.6mb 82f 82f
7:50pm 4ft 7s 5s 13 16 mph 1022.8mb 81f 82f
6:50pm 4.5ft 8s 5s 13 18 mph 1022.7mb 81f 82f
5:50pm 4.5ft 8s 5s 16 18 mph 1022.7mb 81f 82f
4:50pm 4.5ft 8s 5s 16 18 mph 1023mb 81f 81f
3:50pm 4.5ft 8s 5s 16 18 mph 1022.7mb 81f 81f
2:50pm 4.5ft 8s 6s 13 16 mph 1022.8mb 81f 81f
1:50pm 4.5ft 8s 6s 13 16 mph 1022.4mb 81f 81f
12:50pm 4.5ft 8s 6s 16 18 mph 1022.2mb 81f 81f
11:50am 4.5ft 8s 5s 11 13 mph 1021.9mb 81f 81f
10:50am 4.5ft 8s 6s 13 16 mph 1021.4mb 81f 81f
9:50am 4.5ft 8s 5s 13 16 mph 1021.4mb 81f 80f
8:50am 4.5ft 9s 6s 13 16 mph 1021.4mb 81f 81f
7:50am 4.5ft 8s 5s 13 16 mph 1020.9mb 81f 80f
6:50am 4.5ft 8s 6s 13 16 mph 1020.6mb 81f 80f
5:50am 4.5ft 9s 6s 13 16 mph 1020.8mb 81f 80f
4:50am 4.5ft 7s 6s 13 16 mph 1020.9mb 81f 80f
3:50am 4.5ft 9s 6s 13 16 mph 1021.3mb 81f 81f
2:50am 4ft 9s 6s 13 16 mph 1021.2mb 81f 81f
1:50am 4.5ft 7s 6s 11 13 mph 1021.2mb 81f 81f
12:50am 4.5ft 8s 6s 11 13 mph 1020.7mb 81f 81f
Fri 07/03 11:50pm 4.5ft 9s 6s 11 13 mph 1020.6mb 81f 81f
10:50pm 4.5ft 8s 6s 13
mph
1020.7mb 81f 81f
9:50pm 4.5ft 8s 5s 13 16 mph 1020.3mb 81f 82f
8:50pm 5ft 8s 6s 13 16 mph 1020.6mb 81f 82f
7:50pm 5ft 7s 5s 13 18 mph 1020.7mb 81f 81f
6:50pm 4.5ft 8s 5s 13 16 mph 1021mb 81f 81f
5:50pm 4.5ft 8s 5s 16 18 mph 1021.2mb 81f 81f
4:50pm 4.5ft 7s 5s 16 18 mph 1021.6mb 81f 81f
3:50pm 5ft 7s 5s 13 18 mph 1021.7mb 81f 81f
2:50pm 5ft 7s 6s 13 16 mph 1021.4mb 81f 81f
1:50pm 5ft 7s 5s 13 18 mph 1020.9mb 81f 81f
12:50pm 5ft 9s 6s 13 18 mph 1020.5mb 81f 81f
11:50am 5ft 8s 6s 16 18 mph 1020.2mb 81f 80f
10:50am 5ft 8s 5s 16 18 mph 1020.2mb 81f 81f
9:50am 5ft 9s 5s 16 18 mph 1020.4mb 81f 81f
8:50am 4.5ft 8s 5s 16 18 mph 1020.2mb 81f 80f
7:50am 4.5ft 9s 5s 16 20 mph 1020.1mb 81f 81f
6:50am 4.5ft 7s 5s 18 20 mph 1020.2mb 81f 81f
5:50am 4.5ft 8s 5s 18 20 mph 1020.1mb 81f 81f
4:50am 4.5ft 7s 5s 18 22 mph 1019.9mb 81f 81f
3:50am 4.5ft 8s 5s 18 22 mph 1020mb 81f 80f
2:50am 4.5ft 8s 6s 18 20 mph 1020mb 81f 80f
1:50am 4.5ft 7s 5s 16 18 mph 1020.4mb 81f 81f
12:50am 4.5ft 8s 6s 13 16 mph 1020.4mb 81f 80f
Thu 07/02 11:50pm 4.5ft 7s 6s 13 16 mph 1020.7mb 81f 81f
10:50pm 5ft 7s 6s 13 16 mph 1020.7mb 81f 81f
9:50pm 5ft 8s 5s 13 16 mph 1020.8mb 81f 81f
8:50pm 4.5ft 7s 5s 13 16 mph 1020.7mb 81f 81f
7:50pm 5ft 7s 6s 13 18 mph 1021.1mb 81f 81f
6:50pm 5ft 8s 6s 13 18 mph 1021.4mb 81f 81f
5:50pm 5ft 8s 5s 13 18 mph 1021.4mb 81f 81f
4:50pm 5ft 8s 5s 16 20 mph 1021.4mb 81f 81f
3:50pm 5ft 8s 5s 18 20 mph 1021.5mb 81f 81f
2:50pm 5ft 6s 5s 16 18 mph 1021.8mb 80f 81f
1:50pm 5ft 8s 6s 13 18 mph 1021.5mb 80f 80f
12:50pm 4.5ft 7s 6s 16 18 mph 1021.4mb 80f 81f
11:50am 5ft 7s 6s 16 18 mph 1021.3mb 80f 81f
10:50am 5ft 7s 5s 13 18 mph 1020.9mb 80f 80f
9:50am 5ft 6s 5s 13 16 mph 1020.6mb 80f 80f
8:50am 4.5ft 7s 5s 16 20 mph 1020.4mb 80f 80f
7:50am 4.5ft 7s 5s 16 20 mph 1020.5mb 80f 81f
6:50am 4.5ft 7s 5s 18 20 mph 1020.7mb 80f 81f
5:50am 4.5ft 7s 5s 16 18 mph 1021.4mb 80f 81f
4:50am 4.5ft 7s 5s 16 18 mph 1021.5mb 80f 81f
3:50am 5ft 7s 5s 16 18 mph 1021.8mb 80f 81f
2:50am 4.5ft 7s 6s 13 18 mph 1021.8mb 80f 81f
1:50am 4.5ft 7s 5s 13 16 mph 1021.8mb 80f 81f
12:50am 4.5ft 8s 5s 11 13 mph 1021.4mb 80f 81f
Wed 07/01 11:50pm 4.5ft 8s 6s 11 13 mph 1021.4mb 80f 81f
10:50pm 5ft 8s 5s 13 16 mph 1021.5mb 80f 81f
9:50pm 5ft 8s 5s 13 16 mph 1021.2mb 80f 81f
8:50pm 5ft 8s 5s 16 18 mph 1021.2mb 80f 81f
7:50pm 5ft 8s 5s 16 18 mph 1021.2mb 80f 81f
6:50pm 4.5ft 8s 5s 16 20 mph 1021.7mb 80f 81f
5:50pm 5ft 8s 6s 16 18 mph 1022mb 80f 81f
4:50pm 5.5ft 8s 6s 13 16 mph 1022.7mb 80f 81f
3:50pm 5.5ft 8s 6s 13 16 mph 1022.9mb 80f 81f
2:50pm 5.5ft 8s 6s 16 18 mph 1022.6mb 80f 81f
1:50pm 5.5ft 8s 6s 16 20 mph 1022.4mb 80f 81f
12:50pm 5ft 7s 6s 16 20 mph 1022.3mb 80f 81f
11:50am 5.5ft 7s 6s 13 18 mph 1022.5mb 80f 81f
10:50am 6ft 8s 6s 16 18 mph 1022.4mb 80f 81f
9:50am 6ft 7s 6s 18 20 mph 1021.9mb 80f 81f
8:50am 6ft 7s 6s 18 22 mph 1021.5mb 80f 81f
7:50am 6.5ft 7s 6s 16 20 mph 1021.8mb 80f 81f
6:50am 6ft 7s 5s 18 22 mph 1022mb 80f 81f
5:50am 6ft 7s 5s 20 25 mph 1022mb 80f 81f